sensor_id;sensor_type;location;lat;lon;timestamp;P1;durP1;ratioP1;P2;durP2;ratioP2
46391;SDS011;32098;49.448;7.904;2024-02-21T00:00:08;14.90;;;6.67;;
46391;SDS011;32098;49.448;7.904;2024-02-21T00:02:37;13.70;;;6.10;;
46391;SDS011;32098;49.448;7.904;2024-02-21T00:05:04;13.70;;;6.40;;
46391;SDS011;32098;49.448;7.904;2024-02-21T00:07:31;15.40;;;6.70;;
46391;SDS011;32098;49.448;7.904;2024-02-21T00:09:57;16.97;;;7.43;;
46391;SDS011;32098;49.448;7.904;2024-02-21T00:12:24;18.17;;;7.23;;
46391;SDS011;32098;49.448;7.904;2024-02-21T00:14:51;16.27;;;6.93;;
46391;SDS011;32098;49.448;7.904;2024-02-21T00:17:17;13.27;;;6.90;;
46391;SDS011;32098;49.448;7.904;2024-02-21T00:19:44;19.77;;;10.03;;
46391;SDS011;32098;49.448;7.904;2024-02-21T00:22:10;18.60;;;7.43;;
46391;SDS011;32098;49.448;7.904;2024-02-21T00:24:37;15.27;;;7.57;;
46391;SDS011;32098;49.448;7.904;2024-02-21T00:27:03;15.57;;;7.57;;
46391;SDS011;32098;49.448;7.904;2024-02-21T00:29:30;16.90;;;6.47;;
46391;SDS011;32098;49.448;7.904;2024-02-21T00:31:57;18.67;;;8.87;;
46391;SDS011;32098;49.448;7.904;2024-02-21T00:34:24;16.50;;;7.00;;
46391;SDS011;32098;49.448;7.904;2024-02-21T00:36:50;12.90;;;6.13;;
46391;SDS011;32098;49.448;7.904;2024-02-21T00:39:17;14.37;;;6.50;;
46391;SDS011;32098;49.448;7.904;2024-02-21T00:41:44;16.30;;;6.77;;
46391;SDS011;32098;49.448;7.904;2024-02-21T00:44:10;16.00;;;6.27;;
46391;SDS011;32098;49.448;7.904;2024-02-21T00:46:37;12.93;;;6.30;;
46391;SDS011;32098;49.448;7.904;2024-02-21T00:49:05;13.13;;;6.00;;
46391;SDS011;32098;49.448;7.904;2024-02-21T00:51:32;20.20;;;6.97;;
46391;SDS011;32098;49.448;7.904;2024-02-21T00:53:58;13.37;;;6.03;;
46391;SDS011;32098;49.448;7.904;2024-02-21T00:56:25;12.47;;;5.60;;
46391;SDS011;32098;49.448;7.904;2024-02-21T00:58:51;13.97;;;5.57;;
46391;SDS011;32098;49.448;7.904;2024-02-21T01:01:21;14.40;;;6.20;;
46391;SDS011;32098;49.448;7.904;2024-02-21T01:03:49;15.07;;;5.43;;
46391;SDS011;32098;49.448;7.904;2024-02-21T01:06:17;16.13;;;6.43;;
46391;SDS011;32098;49.448;7.904;2024-02-21T01:08:44;12.30;;;5.93;;
46391;SDS011;32098;49.448;7.904;2024-02-21T01:11:11;16.10;;;5.83;;
46391;SDS011;32098;49.448;7.904;2024-02-21T01:13:37;11.13;;;5.57;;
46391;SDS011;32098;49.448;7.904;2024-02-21T01:16:04;14.80;;;5.60;;
46391;SDS011;32098;49.448;7.904;2024-02-21T01:18:37;10.83;;;5.13;;
46391;SDS011;32098;49.448;7.904;2024-02-21T01:21:04;14.80;;;5.17;;
46391;SDS011;32098;49.448;7.904;2024-02-21T01:23:36;12.73;;;5.17;;
46391;SDS011;32098;49.448;7.904;2024-02-21T01:26:03;13.50;;;5.87;;
46391;SDS011;32098;49.448;7.904;2024-02-21T01:28:30;15.50;;;6.33;;
46391;SDS011;32098;49.448;7.904;2024-02-21T01:30:57;11.67;;;5.23;;
46391;SDS011;32098;49.448;7.904;2024-02-21T01:33:24;13.73;;;4.97;;
46391;SDS011;32098;49.448;7.904;2024-02-21T01:35:52;13.50;;;5.73;;
46391;SDS011;32098;49.448;7.904;2024-02-21T01:38:19;17.30;;;6.13;;
46391;SDS011;32098;49.448;7.904;2024-02-21T01:40:46;13.90;;;5.53;;
46391;SDS011;32098;49.448;7.904;2024-02-21T01:43:16;11.37;;;5.40;;
46391;SDS011;32098;49.448;7.904;2024-02-21T01:45:46;10.73;;;5.40;;
46391;SDS011;32098;49.448;7.904;2024-02-21T01:48:16;15.33;;;5.70;;
46391;SDS011;32098;49.448;7.904;2024-02-21T01:50:44;13.03;;;5.87;;
46391;SDS011;32098;49.448;7.904;2024-02-21T01:53:13;14.17;;;5.77;;
46391;SDS011;32098;49.448;7.904;2024-02-21T01:55:45;9.80;;;5.67;;
46391;SDS011;32098;49.448;7.904;2024-02-21T01:58:15;11.33;;;6.27;;
46391;SDS011;32098;49.448;7.904;2024-02-21T02:00:43;11.90;;;5.23;;
46391;SDS011;32098;49.448;7.904;2024-02-21T02:03:12;11.37;;;5.80;;
46391;SDS011;32098;49.448;7.904;2024-02-21T02:05:48;13.67;;;5.83;;
46391;SDS011;32098;49.448;7.904;2024-02-21T02:08:16;12.17;;;6.13;;
46391;SDS011;32098;49.448;7.904;2024-02-21T02:10:45;10.47;;;5.87;;
46391;SDS011;32098;49.448;7.904;2024-02-21T02:13:12;10.17;;;5.83;;
46391;SDS011;32098;49.448;7.904;2024-02-21T02:15:40;14.67;;;6.13;;
46391;SDS011;32098;49.448;7.904;2024-02-21T02:18:08;10.63;;;5.23;;
46391;SDS011;32098;49.448;7.904;2024-02-21T02:20:35;13.90;;;6.03;;
46391;SDS011;32098;49.448;7.904;2024-02-21T02:23:10;11.50;;;5.23;;
46391;SDS011;32098;49.448;7.904;2024-02-21T02:25:46;13.13;;;5.27;;
46391;SDS011;32098;49.448;7.904;2024-02-21T02:28:15;13.53;;;5.57;;
46391;SDS011;32098;49.448;7.904;2024-02-21T02:30:42;10.37;;;5.00;;
46391;SDS011;32098;49.448;7.904;2024-02-21T02:33:09;13.37;;;5.60;;
46391;SDS011;32098;49.448;7.904;2024-02-21T02:35:36;13.97;;;5.30;;
46391;SDS011;32098;49.448;7.904;2024-02-21T02:38:03;13.20;;;6.03;;
46391;SDS011;32098;49.448;7.904;2024-02-21T02:40:30;16.87;;;5.27;;
46391;SDS011;32098;49.448;7.904;2024-02-21T02:42:57;10.97;;;4.60;;
46391;SDS011;32098;49.448;7.904;2024-02-21T02:45:24;12.40;;;5.40;;
46391;SDS011;32098;49.448;7.904;2024-02-21T02:47:53;12.90;;;5.57;;
46391;SDS011;32098;49.448;7.904;2024-02-21T02:50:24;12.37;;;5.10;;
46391;SDS011;32098;49.448;7.904;2024-02-21T02:52:51;12.33;;;4.67;;
46391;SDS011;32098;49.448;7.904;2024-02-21T02:55:19;11.63;;;4.50;;
46391;SDS011;32098;49.448;7.904;2024-02-21T02:57:46;12.00;;;4.33;;
46391;SDS011;32098;49.448;7.904;2024-02-21T03:00:13;15.30;;;5.10;;
46391;SDS011;32098;49.448;7.904;2024-02-21T03:02:41;11.87;;;4.60;;
46391;SDS011;32098;49.448;7.904;2024-02-21T03:05:16;14.63;;;5.00;;
46391;SDS011;32098;49.448;7.904;2024-02-21T03:07:44;9.67;;;4.50;;
46391;SDS011;32098;49.448;7.904;2024-02-21T03:10:11;8.73;;;4.53;;
46391;SDS011;32098;49.448;7.904;2024-02-21T03:12:38;11.87;;;4.97;;
46391;SDS011;32098;49.448;7.904;2024-02-21T03:15:05;11.50;;;4.80;;
46391;SDS011;32098;49.448;7.904;2024-02-21T03:17:32;10.70;;;4.57;;
46391;SDS011;32098;49.448;7.904;2024-02-21T03:20:02;11.90;;;4.83;;
46391;SDS011;32098;49.448;7.904;2024-02-21T03:22:36;10.43;;;4.20;;
46391;SDS011;32098;49.448;7.904;2024-02-21T03:25:04;9.83;;;4.83;;
46391;SDS011;32098;49.448;7.904;2024-02-21T03:27:30;12.13;;;5.00;;
46391;SDS011;32098;49.448;7.904;2024-02-21T03:29:57;10.10;;;4.33;;
46391;SDS011;32098;49.448;7.904;2024-02-21T03:32:24;12.47;;;5.00;;
46391;SDS011;32098;49.448;7.904;2024-02-21T03:34:51;12.77;;;5.47;;
46391;SDS011;32098;49.448;7.904;2024-02-21T03:37:17;12.07;;;4.10;;
46391;SDS011;32098;49.448;7.904;2024-02-21T03:39:45;11.57;;;4.83;;
46391;SDS011;32098;49.448;7.904;2024-02-21T03:42:11;11.93;;;4.57;;
46391;SDS011;32098;49.448;7.904;2024-02-21T03:44:38;12.50;;;4.53;;
46391;SDS011;32098;49.448;7.904;2024-02-21T03:47:05;12.03;;;4.50;;
46391;SDS011;32098;49.448;7.904;2024-02-21T03:49:31;8.37;;;3.90;;
46391;SDS011;32098;49.448;7.904;2024-02-21T03:51:58;8.53;;;4.27;;
46391;SDS011;32098;49.448;7.904;2024-02-21T03:54:25;11.20;;;4.17;;
46391;SDS011;32098;49.448;7.904;2024-02-21T03:56:51;10.43;;;4.33;;
46391;SDS011;32098;49.448;7.904;2024-02-21T03:59:18;11.33;;;4.00;;
46391;SDS011;32098;49.448;7.904;2024-02-21T04:01:45;10.50;;;4.37;;
46391;SDS011;32098;49.448;7.904;2024-02-21T04:04:11;11.50;;;4.10;;
46391;SDS011;32098;49.448;7.904;2024-02-21T04:06:51;9.77;;;3.83;;
46391;SDS011;32098;49.448;7.904;2024-02-21T04:09:18;10.60;;;3.83;;
46391;SDS011;32098;49.448;7.904;2024-02-21T04:11:44;14.93;;;4.80;;
46391;SDS011;32098;49.448;7.904;2024-02-21T04:14:11;8.27;;;4.47;;
46391;SDS011;32098;49.448;7.904;2024-02-21T04:16:38;9.07;;;4.30;;
46391;SDS011;32098;49.448;7.904;2024-02-21T04:19:06;11.43;;;4.27;;
46391;SDS011;32098;49.448;7.904;2024-02-21T04:21:34;11.87;;;4.40;;
46391;SDS011;32098;49.448;7.904;2024-02-21T04:24:01;11.90;;;4.40;;
46391;SDS011;32098;49.448;7.904;2024-02-21T04:26:30;8.83;;;4.00;;
46391;SDS011;32098;49.448;7.904;2024-02-21T04:28:56;8.63;;;3.87;;
46391;SDS011;32098;49.448;7.904;2024-02-21T04:31:23;9.37;;;4.40;;
46391;SDS011;32098;49.448;7.904;2024-02-21T04:33:50;14.67;;;4.77;;
46391;SDS011;32098;49.448;7.904;2024-02-21T04:36:17;11.30;;;5.10;;
46391;SDS011;32098;49.448;7.904;2024-02-21T04:38:45;13.00;;;4.50;;
46391;SDS011;32098;49.448;7.904;2024-02-21T04:41:11;12.47;;;4.40;;
46391;SDS011;32098;49.448;7.904;2024-02-21T04:43:38;15.20;;;5.37;;
46391;SDS011;32098;49.448;7.904;2024-02-21T04:46:05;9.23;;;4.47;;
46391;SDS011;32098;49.448;7.904;2024-02-21T04:48:31;13.40;;;4.10;;
46391;SDS011;32098;49.448;7.904;2024-02-21T04:50:59;9.83;;;4.00;;
46391;SDS011;32098;49.448;7.904;2024-02-21T04:53:25;10.27;;;4.00;;
46391;SDS011;32098;49.448;7.904;2024-02-21T04:55:52;9.80;;;3.93;;
46391;SDS011;32098;49.448;7.904;2024-02-21T04:58:19;8.17;;;3.60;;
46391;SDS011;32098;49.448;7.904;2024-02-21T05:00:45;10.40;;;3.63;;
46391;SDS011;32098;49.448;7.904;2024-02-21T05:03:12;11.67;;;4.17;;
46391;SDS011;32098;49.448;7.904;2024-02-21T05:05:39;8.73;;;3.83;;
46391;SDS011;32098;49.448;7.904;2024-02-21T05:08:06;10.70;;;4.27;;
46391;SDS011;32098;49.448;7.904;2024-02-21T05:10:32;13.30;;;3.87;;
46391;SDS011;32098;49.448;7.904;2024-02-21T05:12:59;10.50;;;4.27;;
46391;SDS011;32098;49.448;7.904;2024-02-21T05:15:26;11.50;;;4.40;;
46391;SDS011;32098;49.448;7.904;2024-02-21T05:17:52;8.67;;;3.97;;
46391;SDS011;32098;49.448;7.904;2024-02-21T05:20:19;17.17;;;4.70;;
46391;SDS011;32098;49.448;7.904;2024-02-21T05:22:46;13.53;;;4.60;;
46391;SDS011;32098;49.448;7.904;2024-02-21T05:25:13;11.83;;;5.90;;
46391;SDS011;32098;49.448;7.904;2024-02-21T05:27:40;11.63;;;5.40;;
46391;SDS011;32098;49.448;7.904;2024-02-21T05:30:06;11.70;;;4.80;;
46391;SDS011;32098;49.448;7.904;2024-02-21T05:32:33;18.47;;;5.03;;
46391;SDS011;32098;49.448;7.904;2024-02-21T05:35:00;13.47;;;4.70;;
46391;SDS011;32098;49.448;7.904;2024-02-21T05:37:27;12.40;;;5.33;;
46391;SDS011;32098;49.448;7.904;2024-02-21T05:39:53;10.67;;;4.90;;
46391;SDS011;32098;49.448;7.904;2024-02-21T05:42:20;10.60;;;5.00;;
46391;SDS011;32098;49.448;7.904;2024-02-21T05:44:47;9.90;;;5.27;;
46391;SDS011;32098;49.448;7.904;2024-02-21T05:47:14;12.23;;;5.23;;
46391;SDS011;32098;49.448;7.904;2024-02-21T05:49:42;12.57;;;5.47;;
46391;SDS011;32098;49.448;7.904;2024-02-21T05:52:08;12.57;;;5.43;;
46391;SDS011;32098;49.448;7.904;2024-02-21T05:54:37;9.50;;;4.37;;
46391;SDS011;32098;49.448;7.904;2024-02-21T05:57:05;12.37;;;4.37;;
46391;SDS011;32098;49.448;7.904;2024-02-21T05:59:32;9.07;;;4.53;;
46391;SDS011;32098;49.448;7.904;2024-02-21T06:01:59;7.93;;;4.10;;
46391;SDS011;32098;49.448;7.904;2024-02-21T06:04:26;10.43;;;4.00;;
46391;SDS011;32098;49.448;7.904;2024-02-21T06:06:52;7.40;;;3.47;;
46391;SDS011;32098;49.448;7.904;2024-02-21T06:09:19;10.60;;;3.97;;
46391;SDS011;32098;49.448;7.904;2024-02-21T06:11:46;10.30;;;4.33;;
46391;SDS011;32098;49.448;7.904;2024-02-21T06:14:13;13.07;;;5.57;;
46391;SDS011;32098;49.448;7.904;2024-02-21T06:16:40;21.43;;;9.27;;
46391;SDS011;32098;49.448;7.904;2024-02-21T06:19:07;13.80;;;6.07;;
46391;SDS011;32098;49.448;7.904;2024-02-21T06:21:36;9.10;;;4.10;;
46391;SDS011;32098;49.448;7.904;2024-02-21T06:24:03;11.17;;;4.10;;
46391;SDS011;32098;49.448;7.904;2024-02-21T06:26:30;7.00;;;4.07;;
46391;SDS011;32098;49.448;7.904;2024-02-21T06:28:57;11.77;;;4.80;;
46391;SDS011;32098;49.448;7.904;2024-02-21T06:31:24;13.20;;;4.90;;
46391;SDS011;32098;49.448;7.904;2024-02-21T06:33:50;11.47;;;4.20;;
46391;SDS011;32098;49.448;7.904;2024-02-21T06:36:17;10.23;;;4.17;;
46391;SDS011;32098;49.448;7.904;2024-02-21T06:38:44;9.30;;;4.30;;
46391;SDS011;32098;49.448;7.904;2024-02-21T06:41:19;9.80;;;4.40;;
46391;SDS011;32098;49.448;7.904;2024-02-21T06:43:46;10.03;;;4.50;;
46391;SDS011;32098;49.448;7.904;2024-02-21T06:46:26;12.77;;;4.10;;
46391;SDS011;32098;49.448;7.904;2024-02-21T06:48:55;11.60;;;4.10;;
46391;SDS011;32098;49.448;7.904;2024-02-21T06:51:26;11.00;;;4.13;;
46391;SDS011;32098;49.448;7.904;2024-02-21T06:53:53;11.67;;;5.03;;
46391;SDS011;32098;49.448;7.904;2024-02-21T06:56:20;17.03;;;6.30;;
46391;SDS011;32098;49.448;7.904;2024-02-21T06:58:53;21.07;;;8.70;;
46391;SDS011;32098;49.448;7.904;2024-02-21T07:01:20;13.17;;;6.00;;
46391;SDS011;32098;49.448;7.904;2024-02-21T07:03:47;13.13;;;3.93;;
46391;SDS011;32098;49.448;7.904;2024-02-21T07:06:13;11.60;;;4.37;;
46391;SDS011;32098;49.448;7.904;2024-02-21T07:08:40;14.13;;;5.27;;
46391;SDS011;32098;49.448;7.904;2024-02-21T07:11:07;10.10;;;4.60;;
46391;SDS011;32098;49.448;7.904;2024-02-21T07:13:33;9.57;;;4.43;;
46391;SDS011;32098;49.448;7.904;2024-02-21T07:16:00;10.80;;;3.93;;
46391;SDS011;32098;49.448;7.904;2024-02-21T07:18:27;13.53;;;4.90;;
46391;SDS011;32098;49.448;7.904;2024-02-21T07:20:53;10.00;;;4.43;;
46391;SDS011;32098;49.448;7.904;2024-02-21T07:23:20;11.53;;;4.33;;
46391;SDS011;32098;49.448;7.904;2024-02-21T07:25:46;12.33;;;5.10;;
46391;SDS011;32098;49.448;7.904;2024-02-21T07:28:13;9.17;;;4.30;;
46391;SDS011;32098;49.448;7.904;2024-02-21T07:30:40;9.70;;;4.00;;
46391;SDS011;32098;49.448;7.904;2024-02-21T07:33:07;13.77;;;4.90;;
46391;SDS011;32098;49.448;7.904;2024-02-21T07:35:34;9.23;;;4.30;;
46391;SDS011;32098;49.448;7.904;2024-02-21T07:38:01;13.63;;;4.57;;
46391;SDS011;32098;49.448;7.904;2024-02-21T07:40:27;14.63;;;5.00;;
46391;SDS011;32098;49.448;7.904;2024-02-21T07:42:54;13.40;;;5.00;;
46391;SDS011;32098;49.448;7.904;2024-02-21T07:45:20;13.90;;;6.93;;
46391;SDS011;32098;49.448;7.904;2024-02-21T07:47:50;13.57;;;5.30;;
46391;SDS011;32098;49.448;7.904;2024-02-21T07:50:17;9.63;;;4.57;;
46391;SDS011;32098;49.448;7.904;2024-02-21T07:52:43;11.00;;;4.37;;
46391;SDS011;32098;49.448;7.904;2024-02-21T07:55:10;10.47;;;4.63;;
46391;SDS011;32098;49.448;7.904;2024-02-21T07:57:37;11.90;;;4.23;;
46391;SDS011;32098;49.448;7.904;2024-02-21T08:00:04;9.93;;;4.03;;
46391;SDS011;32098;49.448;7.904;2024-02-21T08:02:37;9.60;;;4.03;;
46391;SDS011;32098;49.448;7.904;2024-02-21T08:05:04;11.03;;;4.00;;
46391;SDS011;32098;49.448;7.904;2024-02-21T08:07:31;15.13;;;4.03;;
46391;SDS011;32098;49.448;7.904;2024-02-21T08:09:58;11.57;;;3.77;;
46391;SDS011;32098;49.448;7.904;2024-02-21T08:12:24;12.20;;;4.10;;
46391;SDS011;32098;49.448;7.904;2024-02-21T08:14:51;11.03;;;4.80;;
46391;SDS011;32098;49.448;7.904;2024-02-21T08:17:18;13.03;;;5.33;;
46391;SDS011;32098;49.448;7.904;2024-02-21T08:19:44;12.37;;;4.80;;
46391;SDS011;32098;49.448;7.904;2024-02-21T08:22:11;11.67;;;5.93;;
46391;SDS011;32098;49.448;7.904;2024-02-21T08:24:37;8.47;;;4.60;;
46391;SDS011;32098;49.448;7.904;2024-02-21T08:27:04;13.33;;;4.83;;
46391;SDS011;32098;49.448;7.904;2024-02-21T08:29:31;10.90;;;5.03;;
46391;SDS011;32098;49.448;7.904;2024-02-21T08:31:58;12.87;;;4.33;;
46391;SDS011;32098;49.448;7.904;2024-02-21T08:34:25;10.53;;;4.40;;
46391;SDS011;32098;49.448;7.904;2024-02-21T08:36:52;13.47;;;4.43;;
46391;SDS011;32098;49.448;7.904;2024-02-21T08:39:18;11.73;;;4.10;;
46391;SDS011;32098;49.448;7.904;2024-02-21T08:41:45;12.47;;;4.33;;
46391;SDS011;32098;49.448;7.904;2024-02-21T08:44:23;12.07;;;4.07;;
46391;SDS011;32098;49.448;7.904;2024-02-21T08:46:53;11.00;;;3.67;;
46391;SDS011;32098;49.448;7.904;2024-02-21T08:49:20;11.67;;;4.17;;
46391;SDS011;32098;49.448;7.904;2024-02-21T08:51:47;16.53;;;4.87;;
46391;SDS011;32098;49.448;7.904;2024-02-21T08:54:14;12.33;;;4.43;;
46391;SDS011;32098;49.448;7.904;2024-02-21T08:56:40;13.40;;;4.00;;
46391;SDS011;32098;49.448;7.904;2024-02-21T08:59:07;11.07;;;4.30;;
46391;SDS011;32098;49.448;7.904;2024-02-21T09:01:34;8.20;;;4.17;;
46391;SDS011;32098;49.448;7.904;2024-02-21T09:04:02;15.33;;;4.90;;
46391;SDS011;32098;49.448;7.904;2024-02-21T09:06:29;12.70;;;4.50;;
46391;SDS011;32098;49.448;7.904;2024-02-21T09:08:57;16.93;;;6.27;;
46391;SDS011;32098;49.448;7.904;2024-02-21T09:11:24;13.07;;;3.93;;
46391;SDS011;32098;49.448;7.904;2024-02-21T09:13:51;15.33;;;4.23;;
46391;SDS011;32098;49.448;7.904;2024-02-21T09:16:18;10.70;;;3.73;;
46391;SDS011;32098;49.448;7.904;2024-02-21T09:18:45;6.47;;;3.73;;
46391;SDS011;32098;49.448;7.904;2024-02-21T09:21:13;12.43;;;3.90;;
46391;SDS011;32098;49.448;7.904;2024-02-21T09:23:39;10.07;;;4.00;;
46391;SDS011;32098;49.448;7.904;2024-02-21T09:26:06;11.53;;;4.07;;
46391;SDS011;32098;49.448;7.904;2024-02-21T09:28:33;10.73;;;4.20;;
46391;SDS011;32098;49.448;7.904;2024-02-21T09:31:01;13.07;;;4.37;;
46391;SDS011;32098;49.448;7.904;2024-02-21T09:33:28;10.50;;;3.90;;
46391;SDS011;32098;49.448;7.904;2024-02-21T09:35:58;10.53;;;3.90;;
46391;SDS011;32098;49.448;7.904;2024-02-21T09:38:26;8.47;;;3.87;;
46391;SDS011;32098;49.448;7.904;2024-02-21T09:41:35;7.90;;;3.17;;
46391;SDS011;32098;49.448;7.904;2024-02-21T09:43:50;12.60;;;4.80;;
46391;SDS011;32098;49.448;7.904;2024-02-21T09:46:21;11.77;;;4.23;;
46391;SDS011;32098;49.448;7.904;2024-02-21T09:49:21;15.17;;;5.73;;
46391;SDS011;32098;49.448;7.904;2024-02-21T09:52:01;11.90;;;3.73;;
46391;SDS011;32098;49.448;7.904;2024-02-21T09:54:30;11.40;;;4.17;;
46391;SDS011;32098;49.448;7.904;2024-02-21T09:57:00;10.60;;;3.63;;
46391;SDS011;32098;49.448;7.904;2024-02-21T09:59:28;9.70;;;2.83;;
46391;SDS011;32098;49.448;7.904;2024-02-21T10:01:56;8.47;;;3.20;;
46391;SDS011;32098;49.448;7.904;2024-02-21T10:04:23;9.37;;;3.30;;
46391;SDS011;32098;49.448;7.904;2024-02-21T10:06:50;8.17;;;2.77;;
46391;SDS011;32098;49.448;7.904;2024-02-21T10:09:36;9.77;;;2.97;;
46391;SDS011;32098;49.448;7.904;2024-02-21T10:12:09;8.53;;;3.20;;
46391;SDS011;32098;49.448;7.904;2024-02-21T10:14:38;6.83;;;2.47;;
46391;SDS011;32098;49.448;7.904;2024-02-21T10:17:04;8.97;;;2.50;;
46391;SDS011;32098;49.448;7.904;2024-02-21T10:19:36;14.03;;;5.43;;
46391;SDS011;32098;49.448;7.904;2024-02-21T10:22:04;10.20;;;3.80;;
46391;SDS011;32098;49.448;7.904;2024-02-21T10:24:31;10.13;;;3.90;;
46391;SDS011;32098;49.448;7.904;2024-02-21T10:27:02;9.93;;;3.53;;
46391;SDS011;32098;49.448;7.904;2024-02-21T10:29:30;7.10;;;3.03;;
46391;SDS011;32098;49.448;7.904;2024-02-21T10:32:10;11.17;;;3.33;;
46391;SDS011;32098;49.448;7.904;2024-02-21T10:34:40;6.40;;;2.80;;
46391;SDS011;32098;49.448;7.904;2024-02-21T10:37:09;8.80;;;3.27;;
46391;SDS011;32098;49.448;7.904;2024-02-21T10:39:37;8.97;;;3.63;;
46391;SDS011;32098;49.448;7.904;2024-02-21T10:42:05;8.73;;;2.83;;
46391;SDS011;32098;49.448;7.904;2024-02-21T10:44:32;10.23;;;3.33;;
46391;SDS011;32098;49.448;7.904;2024-02-21T10:47:09;8.83;;;3.03;;
46391;SDS011;32098;49.448;7.904;2024-02-21T10:49:38;8.50;;;3.93;;
46391;SDS011;32098;49.448;7.904;2024-02-21T10:55:00;9.87;;;3.40;;
46391;SDS011;32098;49.448;7.904;2024-02-21T10:57:33;7.30;;;3.43;;
46391;SDS011;32098;49.448;7.904;2024-02-21T11:00:01;9.83;;;2.97;;
46391;SDS011;32098;49.448;7.904;2024-02-21T11:02:30;8.13;;;2.40;;
46391;SDS011;32098;49.448;7.904;2024-02-21T11:04:57;9.07;;;3.20;;
46391;SDS011;32098;49.448;7.904;2024-02-21T11:07:25;9.27;;;2.63;;
46391;SDS011;32098;49.448;7.904;2024-02-21T11:09:53;7.30;;;2.77;;
46391;SDS011;32098;49.448;7.904;2024-02-21T11:12:23;6.20;;;2.80;;
46391;SDS011;32098;49.448;7.904;2024-02-21T11:14:52;9.70;;;2.57;;
46391;SDS011;32098;49.448;7.904;2024-02-21T11:17:19;5.77;;;2.40;;
46391;SDS011;32098;49.448;7.904;2024-02-21T11:19:47;7.77;;;2.20;;
46391;SDS011;32098;49.448;7.904;2024-02-21T11:22:18;10.13;;;3.03;;
46391;SDS011;32098;49.448;7.904;2024-02-21T11:24:46;10.10;;;3.20;;
46391;SDS011;32098;49.448;7.904;2024-02-21T11:27:14;9.73;;;2.93;;
46391;SDS011;32098;49.448;7.904;2024-02-21T11:29:45;6.33;;;2.30;;
46391;SDS011;32098;49.448;7.904;2024-02-21T11:32:16;6.40;;;1.97;;
46391;SDS011;32098;49.448;7.904;2024-02-21T11:34:57;7.13;;;2.23;;
46391;SDS011;32098;49.448;7.904;2024-02-21T11:37:29;8.93;;;2.47;;
46391;SDS011;32098;49.448;7.904;2024-02-21T11:39:59;5.93;;;2.60;;
46391;SDS011;32098;49.448;7.904;2024-02-21T11:42:26;9.40;;;2.37;;
46391;SDS011;32098;49.448;7.904;2024-02-21T11:44:54;6.63;;;2.10;;
46391;SDS011;32098;49.448;7.904;2024-02-21T11:47:23;6.40;;;2.37;;
46391;SDS011;32098;49.448;7.904;2024-02-21T11:49:50;8.63;;;2.43;;
46391;SDS011;32098;49.448;7.904;2024-02-21T11:52:21;5.47;;;2.20;;
46391;SDS011;32098;49.448;7.904;2024-02-21T11:54:51;10.00;;;2.70;;
46391;SDS011;32098;49.448;7.904;2024-02-21T11:57:18;7.83;;;3.07;;
46391;SDS011;32098;49.448;7.904;2024-02-21T11:59:45;3.93;;;2.30;;
46391;SDS011;32098;49.448;7.904;2024-02-21T12:02:13;6.43;;;2.10;;
46391;SDS011;32098;49.448;7.904;2024-02-21T12:04:41;5.70;;;2.20;;
46391;SDS011;32098;49.448;7.904;2024-02-21T12:07:08;5.00;;;2.00;;
46391;SDS011;32098;49.448;7.904;2024-02-21T12:09:35;4.23;;;2.10;;
46391;SDS011;32098;49.448;7.904;2024-02-21T12:12:02;5.37;;;2.30;;
46391;SDS011;32098;49.448;7.904;2024-02-21T12:14:32;5.47;;;2.50;;
46391;SDS011;32098;49.448;7.904;2024-02-21T12:17:00;5.53;;;1.80;;
46391;SDS011;32098;49.448;7.904;2024-02-21T12:19:32;6.53;;;1.73;;
46391;SDS011;32098;49.448;7.904;2024-02-21T12:22:00;6.53;;;2.30;;
46391;SDS011;32098;49.448;7.904;2024-02-21T12:24:27;9.23;;;2.50;;
46391;SDS011;32098;49.448;7.904;2024-02-21T12:26:55;4.87;;;2.13;;
46391;SDS011;32098;49.448;7.904;2024-02-21T12:29:23;8.53;;;2.40;;
46391;SDS011;32098;49.448;7.904;2024-02-21T12:31:55;6.30;;;2.30;;
46391;SDS011;32098;49.448;7.904;2024-02-21T12:34:23;7.67;;;2.53;;
46391;SDS011;32098;49.448;7.904;2024-02-21T12:37:04;5.70;;;2.40;;
46391;SDS011;32098;49.448;7.904;2024-02-21T12:39:31;5.87;;;2.20;;
46391;SDS011;32098;49.448;7.904;2024-02-21T12:41:58;6.80;;;2.40;;
46391;SDS011;32098;49.448;7.904;2024-02-21T12:44:26;6.67;;;2.60;;
46391;SDS011;32098;49.448;7.904;2024-02-21T12:46:53;6.90;;;2.40;;
46391;SDS011;32098;49.448;7.904;2024-02-21T12:49:21;6.67;;;2.20;;
46391;SDS011;32098;49.448;7.904;2024-02-21T12:51:48;6.43;;;2.80;;
46391;SDS011;32098;49.448;7.904;2024-02-21T12:54:15;9.10;;;3.60;;
46391;SDS011;32098;49.448;7.904;2024-02-21T12:56:42;6.07;;;2.80;;
46391;SDS011;32098;49.448;7.904;2024-02-21T12:59:08;6.57;;;2.80;;
46391;SDS011;32098;49.448;7.904;2024-02-21T13:01:36;7.53;;;2.33;;
46391;SDS011;32098;49.448;7.904;2024-02-21T13:04:04;4.20;;;2.10;;
46391;SDS011;32098;49.448;7.904;2024-02-21T13:06:32;10.40;;;3.50;;
46391;SDS011;32098;49.448;7.904;2024-02-21T13:08:59;14.07;;;5.87;;
46391;SDS011;32098;49.448;7.904;2024-02-21T13:11:28;15.90;;;7.60;;
46391;SDS011;32098;49.448;7.904;2024-02-21T13:13:58;9.47;;;4.80;;
46391;SDS011;32098;49.448;7.904;2024-02-21T13:16:24;11.10;;;4.10;;
46391;SDS011;32098;49.448;7.904;2024-02-21T13:18:53;10.00;;;4.43;;
46391;SDS011;32098;49.448;7.904;2024-02-21T13:21:20;8.73;;;3.60;;
46391;SDS011;32098;49.448;7.904;2024-02-21T13:23:47;5.47;;;1.93;;
46391;SDS011;32098;49.448;7.904;2024-02-21T13:26:14;7.43;;;1.87;;
46391;SDS011;32098;49.448;7.904;2024-02-21T13:28:41;6.00;;;2.60;;
46391;SDS011;32098;49.448;7.904;2024-02-21T13:31:11;10.30;;;2.80;;
46391;SDS011;32098;49.448;7.904;2024-02-21T13:33:38;6.53;;;2.27;;
46391;SDS011;32098;49.448;7.904;2024-02-21T13:36:05;7.10;;;2.73;;
46391;SDS011;32098;49.448;7.904;2024-02-21T13:38:32;7.20;;;2.57;;
46391;SDS011;32098;49.448;7.904;2024-02-21T13:40:58;4.03;;;1.90;;
46391;SDS011;32098;49.448;7.904;2024-02-21T13:43:27;6.00;;;2.73;;
46391;SDS011;32098;49.448;7.904;2024-02-21T13:45:58;5.27;;;2.23;;
46391;SDS011;32098;49.448;7.904;2024-02-21T13:48:35;6.63;;;2.10;;
46391;SDS011;32098;49.448;7.904;2024-02-21T13:51:02;3.30;;;1.93;;
46391;SDS011;32098;49.448;7.904;2024-02-21T13:53:29;5.97;;;2.40;;
46391;SDS011;32098;49.448;7.904;2024-02-21T13:55:55;5.63;;;2.50;;
46391;SDS011;32098;49.448;7.904;2024-02-21T13:58:22;7.83;;;3.03;;
46391;SDS011;32098;49.448;7.904;2024-02-21T14:00:49;7.40;;;2.90;;
46391;SDS011;32098;49.448;7.904;2024-02-21T14:03:17;4.93;;;2.00;;
46391;SDS011;32098;49.448;7.904;2024-02-21T14:05:45;5.73;;;2.07;;
46391;SDS011;32098;49.448;7.904;2024-02-21T14:08:14;4.50;;;2.20;;
46391;SDS011;32098;49.448;7.904;2024-02-21T14:10:42;5.40;;;2.40;;
46391;SDS011;32098;49.448;7.904;2024-02-21T14:13:08;3.80;;;1.90;;
46391;SDS011;32098;49.448;7.904;2024-02-21T14:15:35;4.73;;;2.07;;
46391;SDS011;32098;49.448;7.904;2024-02-21T14:18:04;6.10;;;2.47;;
46391;SDS011;32098;49.448;7.904;2024-02-21T14:20:35;4.70;;;2.17;;
46391;SDS011;32098;49.448;7.904;2024-02-21T14:23:02;7.27;;;1.93;;
46391;SDS011;32098;49.448;7.904;2024-02-21T14:25:29;5.97;;;2.80;;
46391;SDS011;32098;49.448;7.904;2024-02-21T14:27:56;7.37;;;4.63;;
46391;SDS011;32098;49.448;7.904;2024-02-21T14:30:22;6.90;;;2.37;;
46391;SDS011;32098;49.448;7.904;2024-02-21T14:32:49;3.53;;;1.60;;
46391;SDS011;32098;49.448;7.904;2024-02-21T14:35:17;6.83;;;2.50;;
46391;SDS011;32098;49.448;7.904;2024-02-21T14:37:44;8.07;;;2.63;;
46391;SDS011;32098;49.448;7.904;2024-02-21T14:40:12;5.17;;;2.80;;
46391;SDS011;32098;49.448;7.904;2024-02-21T14:42:39;5.67;;;2.83;;
46391;SDS011;32098;49.448;7.904;2024-02-21T14:45:05;5.40;;;3.70;;
46391;SDS011;32098;49.448;7.904;2024-02-21T14:47:33;9.17;;;3.97;;